createdAt,value
2019-01-29T00:01:33.707Z,1.84
2019-01-29T00:04:00.459Z,1.79
2019-01-29T00:06:27.204Z,1.94
2019-01-29T00:08:53.976Z,1.91
2019-01-29T00:11:20.745Z,1.82
2019-01-29T00:13:47.512Z,1.82
2019-01-29T00:16:14.257Z,1.77
2019-01-29T00:18:41.020Z,1.70
2019-01-29T00:21:07.753Z,1.71
2019-01-29T00:23:34.627Z,1.71
2019-01-29T00:26:01.372Z,1.69
2019-01-29T00:28:28.132Z,1.68
2019-01-29T00:30:54.872Z,1.65
2019-01-29T00:33:21.636Z,1.65
2019-01-29T00:35:48.372Z,1.72
2019-01-29T00:38:15.140Z,1.69
2019-01-29T00:40:41.904Z,1.76
2019-01-29T00:43:08.754Z,1.72
2019-01-29T00:45:35.548Z,1.76
2019-01-29T00:48:02.311Z,1.83
2019-01-29T00:50:29.068Z,1.76
2019-01-29T00:52:55.821Z,1.83
2019-01-29T00:55:22.564Z,1.88
2019-01-29T00:57:49.324Z,1.79
2019-01-29T01:00:20.190Z,1.86
2019-01-29T01:02:47.007Z,1.85
2019-01-29T01:05:13.919Z,1.84
2019-01-29T01:07:40.672Z,1.92
2019-01-29T01:10:09.185Z,1.84
2019-01-29T01:12:36.021Z,1.92
2019-01-29T01:15:02.816Z,1.93
2019-01-29T01:17:29.588Z,1.87
2019-01-29T01:19:56.336Z,1.91
2019-01-29T01:22:23.092Z,1.88
2019-01-29T01:24:49.848Z,1.82
2019-01-29T01:27:16.580Z,1.79
2019-01-29T01:29:43.346Z,1.75
2019-01-29T01:32:10.096Z,1.75
2019-01-29T01:34:36.860Z,1.69
2019-01-29T01:37:03.604Z,1.67
2019-01-29T01:39:30.352Z,1.64
2019-01-29T01:41:57.096Z,1.63
2019-01-29T01:44:23.880Z,1.57
2019-01-29T01:46:50.624Z,1.52
2019-01-29T01:49:17.384Z,1.46
2019-01-29T01:51:44.132Z,1.53
2019-01-29T01:54:10.896Z,1.47
2019-01-29T01:56:37.629Z,1.47
2019-01-29T01:59:04.385Z,1.49
2019-01-29T02:01:31.156Z,1.43
2019-01-29T02:03:57.956Z,1.48
2019-01-29T02:06:24.704Z,1.48
2019-01-29T02:08:51.471Z,1.46
2019-01-29T02:11:18.199Z,1.48
2019-01-29T02:13:44.972Z,1.46
2019-01-29T02:16:11.704Z,1.43
2019-01-29T02:18:38.571Z,1.40
2019-01-29T02:21:05.301Z,1.47
2019-01-29T02:23:32.055Z,1.49
2019-01-29T02:25:58.800Z,1.45
2019-01-29T02:28:25.559Z,1.48
2019-01-29T02:30:52.288Z,1.52
2019-01-29T02:33:19.058Z,1.47
2019-01-29T02:35:45.796Z,1.49
2019-01-29T02:38:12.588Z,1.55
2019-01-29T02:40:39.337Z,1.51
2019-01-29T02:43:06.087Z,1.56
2019-01-29T02:45:32.838Z,1.49
2019-01-29T02:47:59.592Z,1.59
2019-01-29T02:50:26.331Z,1.68
2019-01-29T02:52:53.075Z,1.80
2019-01-29T02:55:19.853Z,2.11
2019-01-29T02:57:46.594Z,2.39
2019-01-29T03:00:17.300Z,2.53
2019-01-29T03:02:44.053Z,1.93
2019-01-29T03:05:10.842Z,2.02
2019-01-29T03:07:37.592Z,1.89
2019-01-29T03:10:06.015Z,2.16
2019-01-29T03:12:32.756Z,2.05
2019-01-29T03:14:59.513Z,1.70
2019-01-29T03:17:26.280Z,1.28
2019-01-29T03:19:53.046Z,1.39
2019-01-29T03:22:19.781Z,1.49
2019-01-29T03:24:46.540Z,1.07
2019-01-29T03:27:13.281Z,1.38
2019-01-29T03:29:40.049Z,1.04
2019-01-29T03:32:06.794Z,1.31
2019-01-29T03:34:33.653Z,1.02
2019-01-29T03:37:00.392Z,1.05
2019-01-29T03:39:27.156Z,1.00
2019-01-29T03:41:53.891Z,1.18
2019-01-29T03:44:20.653Z,0.93
2019-01-29T03:46:47.386Z,0.88
2019-01-29T03:49:14.196Z,0.81
2019-01-29T03:51:40.933Z,0.63
2019-01-29T03:54:07.697Z,0.63
2019-01-29T03:56:34.424Z,0.57
2019-01-29T03:59:01.172Z,0.56
2019-01-29T04:01:27.936Z,0.47
2019-01-29T04:03:54.663Z,0.57
2019-01-29T04:06:21.412Z,0.61
2019-01-29T04:08:48.199Z,0.52
2019-01-29T04:11:14.954Z,0.65
2019-01-29T04:13:41.685Z,0.63
2019-01-29T04:16:08.459Z,0.47
2019-01-29T04:18:35.203Z,0.58
2019-01-29T04:21:01.975Z,0.59
2019-01-29T04:23:28.712Z,0.64
2019-01-29T04:25:55.460Z,0.50
2019-01-29T04:28:22.195Z,0.47
2019-01-29T04:30:48.952Z,0.47
2019-01-29T04:33:15.684Z,0.56
2019-01-29T04:35:42.436Z,0.63
2019-01-29T04:38:09.193Z,0.64
2019-01-29T04:40:35.941Z,0.77
2019-01-29T04:43:02.678Z,0.73
2019-01-29T04:45:29.445Z,0.67
2019-01-29T04:47:56.172Z,0.74
2019-01-29T04:52:23.204Z,0.74
2019-01-29T04:54:49.974Z,0.79
2019-01-29T04:57:16.737Z,0.89
2019-01-29T04:59:43.492Z,0.76
2019-01-29T05:02:10.252Z,0.78
2019-01-29T05:04:37.011Z,0.75
2019-01-29T05:07:03.765Z,0.82
2019-01-29T05:09:30.585Z,0.80
2019-01-29T05:11:57.272Z,0.85
2019-01-29T05:14:24.011Z,0.87
2019-01-29T05:16:50.773Z,0.83
2019-01-29T05:19:17.577Z,0.89
2019-01-29T05:21:44.470Z,0.96
2019-01-29T05:24:11.216Z,0.95
2019-01-29T05:26:37.977Z,1.01
2019-01-29T05:29:04.719Z,1.03
2019-01-29T05:31:31.496Z,1.06
2019-01-29T05:33:58.224Z,1.07
2019-01-29T05:36:25.124Z,1.14
2019-01-29T05:38:51.876Z,1.09
2019-01-29T05:41:18.639Z,1.15
2019-01-29T05:43:45.378Z,1.24
2019-01-29T05:46:12.223Z,1.15
2019-01-29T05:48:38.964Z,1.21
2019-01-29T05:51:05.736Z,1.19
2019-01-29T05:53:32.496Z,1.19
2019-01-29T05:55:59.325Z,1.30
2019-01-29T05:58:26.158Z,1.22
2019-01-29T06:00:52.945Z,1.22
2019-01-29T06:03:19.816Z,1.14
2019-01-29T06:05:46.597Z,1.23
2019-01-29T06:08:13.749Z,1.21
2019-01-29T06:10:40.580Z,1.24
2019-01-29T06:13:07.363Z,1.16
2019-01-29T06:15:34.144Z,1.22
2019-01-29T06:18:00.967Z,1.30
2019-01-29T06:20:27.919Z,1.26
2019-01-29T06:22:55.860Z,1.26
2019-01-29T06:25:22.658Z,1.23
2019-01-29T06:27:49.494Z,1.18
2019-01-29T06:30:17.301Z,1.21
2019-01-29T06:32:44.108Z,1.28
2019-01-29T06:35:12.233Z,1.19
2019-01-29T06:37:39.746Z,1.17
2019-01-29T06:40:08.048Z,1.13
2019-01-29T06:42:34.814Z,1.10
2019-01-29T06:45:01.595Z,1.15
2019-01-29T06:47:29.395Z,1.18
2019-01-29T06:49:56.170Z,1.12
2019-01-29T06:52:22.987Z,1.26
2019-01-29T06:54:49.740Z,1.19
2019-01-29T06:57:16.601Z,1.07
2019-01-29T06:59:43.374Z,1.30
2019-01-29T07:02:10.776Z,1.41
2019-01-29T07:04:37.589Z,1.18
2019-01-29T07:07:04.376Z,1.47
2019-01-29T07:09:31.361Z,1.26
2019-01-29T07:12:00.393Z,1.40
2019-01-29T07:14:27.200Z,1.48
2019-01-29T07:17:01.588Z,1.09
2019-01-29T07:19:33.892Z,1.25
2019-01-29T07:22:00.687Z,1.05
2019-01-29T07:24:27.504Z,1.28
2019-01-29T07:26:54.301Z,1.40
2019-01-29T07:29:21.067Z,1.62
2019-01-29T07:31:48.112Z,1.31
2019-01-29T07:34:14.939Z,1.31
2019-01-29T07:36:41.749Z,1.27
2019-01-29T07:39:09.676Z,1.35
2019-01-29T07:41:36.461Z,1.53
2019-01-29T07:44:03.270Z,1.55
2019-01-29T07:46:30.090Z,1.58
2019-01-29T07:48:56.848Z,1.32
2019-01-29T07:51:23.663Z,1.54
2019-01-29T07:53:50.448Z,1.40
2019-01-29T07:56:17.480Z,1.42
2019-01-29T07:58:44.280Z,1.21
2019-01-29T08:01:11.035Z,1.32
2019-01-29T08:03:38.235Z,1.28
2019-01-29T08:06:04.773Z,1.42
2019-01-29T08:08:31.570Z,1.35
2019-01-29T08:10:58.316Z,1.47
2019-01-29T08:13:25.098Z,1.54
2019-01-29T08:15:51.980Z,1.85
2019-01-29T08:18:20.527Z,1.65
2019-01-29T08:20:45.811Z,1.89
2019-01-29T08:23:12.618Z,1.69
2019-01-29T08:25:47.405Z,1.78
2019-01-29T08:28:06.908Z,1.77
2019-01-29T08:30:33.739Z,2.15
2019-01-29T08:33:00.671Z,2.10
2019-01-29T08:35:27.468Z,2.49
2019-01-29T08:37:54.307Z,2.71
2019-01-29T08:40:21.081Z,2.44
2019-01-29T08:42:47.904Z,2.51
2019-01-29T08:45:14.821Z,2.52
2019-01-29T08:47:41.516Z,2.44
2019-01-29T08:50:11.060Z,2.37
2019-01-29T08:52:37.934Z,2.19
2019-01-29T08:55:10.637Z,2.24
2019-01-29T08:57:31.870Z,2.72
2019-01-29T08:59:58.886Z,2.57
2019-01-29T09:02:25.670Z,2.84
2019-01-29T09:04:52.417Z,2.79
2019-01-29T09:07:19.201Z,2.88
2019-01-29T09:09:46.010Z,2.94
2019-01-29T09:12:12.749Z,3.06
2019-01-29T09:14:39.513Z,2.59
2019-01-29T09:17:06.264Z,2.87
2019-01-29T09:19:33.018Z,2.71
2019-01-29T09:21:59.755Z,2.55
2019-01-29T09:24:26.513Z,2.46
2019-01-29T09:26:53.256Z,2.50
2019-01-29T09:29:20.016Z,2.35
2019-01-29T09:31:46.787Z,2.41
2019-01-29T09:34:13.544Z,2.50
2019-01-29T09:36:40.302Z,2.36
2019-01-29T09:39:09.252Z,2.69
2019-01-29T09:41:36.000Z,2.51
2019-01-29T09:44:02.795Z,2.64
2019-01-29T09:46:29.524Z,2.43
2019-01-29T09:48:56.271Z,2.56
2019-01-29T09:51:23.018Z,2.62
2019-01-29T09:53:49.856Z,2.49
2019-01-29T09:56:16.658Z,2.65
2019-01-29T09:58:43.430Z,3.00
2019-01-29T10:01:10.185Z,3.75
2019-01-29T10:03:36.989Z,3.37
2019-01-29T10:06:03.720Z,3.66
2019-01-29T10:08:30.477Z,3.66
2019-01-29T10:10:57.293Z,3.69
2019-01-29T10:13:23.998Z,3.88
2019-01-29T10:15:50.740Z,3.90
2019-01-29T10:18:17.521Z,3.61
2019-01-29T10:20:44.273Z,3.52
2019-01-29T10:23:11.057Z,3.42
2019-01-29T10:25:38.241Z,3.56
2019-01-29T10:28:04.531Z,3.67
2019-01-29T10:30:31.301Z,3.77
2019-01-29T10:32:58.053Z,4.05
2019-01-29T10:35:25.116Z,3.61
2019-01-29T10:37:51.852Z,3.67
2019-01-29T10:40:19.932Z,3.21
2019-01-29T10:42:46.669Z,3.12
2019-01-29T10:45:14.940Z,3.35
2019-01-29T10:47:41.691Z,3.32
2019-01-29T10:50:10.224Z,3.42
2019-01-29T10:52:36.998Z,3.15
2019-01-29T10:55:04.753Z,3.11
2019-01-29T10:57:31.490Z,3.51
2019-01-29T10:59:58.269Z,3.17
2019-01-29T11:02:25.012Z,3.29
2019-01-29T11:04:51.771Z,3.73
2019-01-29T11:07:18.513Z,3.84
2019-01-29T11:09:45.255Z,3.82
2019-01-29T11:12:11.994Z,4.07
2019-01-29T11:14:38.744Z,4.37
2019-01-29T11:17:05.492Z,4.35
2019-01-29T11:19:32.268Z,4.46
2019-01-29T11:21:59.007Z,4.31
2019-01-29T11:24:25.772Z,4.48
2019-01-29T11:26:52.504Z,4.35
2019-01-29T11:29:19.278Z,4.27
2019-01-29T11:31:46.016Z,4.62
2019-01-29T11:34:12.796Z,5.14
2019-01-29T11:36:39.693Z,5.05
2019-01-29T11:39:08.516Z,5.22
2019-01-29T11:41:35.268Z,5.51
2019-01-29T11:44:02.049Z,4.32
2019-01-29T11:46:28.803Z,4.50
2019-01-29T11:48:55.568Z,5.17
2019-01-29T11:51:22.309Z,4.89
2019-01-29T11:53:49.068Z,5.13
2019-01-29T11:56:15.828Z,4.68
2019-01-29T11:58:42.667Z,5.13
2019-01-29T12:01:10.702Z,4.86
2019-01-29T12:03:37.444Z,4.92
2019-01-29T12:06:04.216Z,5.16
2019-01-29T12:08:30.953Z,4.76
2019-01-29T12:10:57.712Z,5.44
2019-01-29T12:13:24.456Z,5.84
2019-01-29T12:15:51.212Z,6.18
2019-01-29T12:18:17.949Z,6.48
2019-01-29T12:20:44.703Z,6.78
2019-01-29T12:23:11.463Z,6.61
2019-01-29T12:25:38.232Z,6.59
2019-01-29T12:28:05.080Z,6.59
2019-01-29T12:30:31.836Z,6.81
2019-01-29T12:32:59.140Z,6.58
2019-01-29T12:35:25.909Z,5.95
2019-01-29T12:37:52.660Z,5.57
2019-01-29T12:40:19.416Z,5.42
2019-01-29T12:42:46.151Z,5.32
2019-01-29T12:45:13.080Z,5.61
2019-01-29T12:47:39.979Z,5.83
2019-01-29T12:50:09.509Z,5.75
2019-01-29T12:52:47.608Z,6.26
2019-01-29T12:55:14.367Z,6.61
2019-01-29T12:57:41.120Z,6.77
2019-01-29T13:00:09.796Z,6.94
2019-01-29T13:02:36.550Z,6.89
2019-01-29T13:05:04.492Z,6.98
2019-01-29T13:07:31.244Z,6.82
2019-01-29T13:09:58.911Z,7.10
2019-01-29T13:12:25.072Z,5.85
2019-01-29T13:14:51.832Z,5.93
2019-01-29T13:17:18.588Z,5.48
2019-01-29T13:19:45.351Z,5.35
2019-01-29T13:22:12.200Z,5.47
2019-01-29T13:24:39.136Z,5.44
2019-01-29T13:27:05.996Z,5.35
2019-01-29T13:29:32.772Z,5.75
2019-01-29T13:31:59.549Z,5.44
2019-01-29T13:34:26.279Z,5.81
2019-01-29T13:36:53.069Z,6.02
2019-01-29T13:39:19.897Z,6.05
2019-01-29T13:41:46.668Z,6.31
2019-01-29T13:44:13.434Z,6.17
2019-01-29T13:46:40.341Z,6.25
2019-01-29T13:49:07.190Z,5.87
2019-01-29T13:51:34.128Z,5.40
2019-01-29T13:54:00.986Z,5.42
2019-01-29T13:56:27.849Z,5.29
2019-01-29T13:58:54.698Z,5.40
2019-01-29T14:01:21.566Z,5.61
2019-01-29T14:03:48.441Z,5.75
2019-01-29T14:06:15.302Z,5.43
2019-01-29T14:08:42.144Z,5.75
2019-01-29T14:11:09.030Z,5.73
2019-01-29T14:13:35.873Z,5.69
2019-01-29T14:16:05.921Z,5.59
2019-01-29T14:18:32.775Z,5.43
2019-01-29T14:21:00.234Z,5.66
2019-01-29T14:23:27.114Z,5.68
2019-01-29T14:25:53.994Z,5.61
2019-01-29T14:28:20.846Z,5.73
2019-01-29T14:30:47.715Z,5.70
2019-01-29T14:33:14.554Z,5.76
2019-01-29T14:35:41.423Z,5.76
2019-01-29T14:38:44.278Z,6.16
2019-01-29T14:41:11.230Z,5.94
2019-01-29T14:43:38.217Z,5.88
2019-01-29T14:46:05.094Z,5.83
2019-01-29T14:48:31.971Z,5.83
2019-01-29T14:50:58.838Z,5.83
2019-01-29T14:53:25.722Z,5.73
2019-01-29T14:55:52.566Z,5.99
2019-01-29T14:58:19.413Z,5.60
2019-01-29T15:00:46.297Z,5.53
2019-01-29T15:03:13.137Z,5.47
2019-01-29T15:05:40.082Z,5.58
2019-01-29T15:08:06.939Z,5.84
2019-01-29T15:10:33.799Z,5.49
2019-01-29T15:13:00.659Z,5.57
2019-01-29T15:15:27.546Z,5.38
2019-01-29T15:17:57.854Z,5.34
2019-01-29T15:20:24.691Z,5.80
2019-01-29T15:22:51.558Z,5.53
2019-01-29T15:25:18.402Z,5.53
2019-01-29T15:27:45.277Z,5.40
2019-01-29T15:30:15.767Z,5.48
2019-01-29T15:32:42.629Z,5.26
2019-01-29T15:35:09.503Z,5.38
2019-01-29T15:37:36.370Z,5.17
2019-01-29T15:40:04.066Z,5.38
2019-01-29T15:42:30.974Z,5.16
2019-01-29T15:44:59.010Z,5.19
2019-01-29T15:47:24.703Z,5.03
2019-01-29T15:49:51.541Z,5.12
2019-01-29T15:52:18.401Z,5.47
2019-01-29T15:54:45.238Z,4.79
2019-01-29T15:57:14.238Z,4.78
2019-01-29T15:59:42.904Z,4.75
2019-01-29T16:02:05.838Z,4.51
2019-01-29T16:04:32.678Z,4.50
2019-01-29T16:06:59.537Z,4.47
2019-01-29T16:09:26.413Z,4.44
2019-01-29T16:11:53.258Z,4.88
2019-01-29T16:14:20.102Z,4.35
2019-01-29T16:16:46.982Z,4.08
2019-01-29T16:19:13.825Z,3.98
2019-01-29T16:21:40.691Z,3.84
2019-01-29T16:24:07.531Z,3.79
2019-01-29T16:26:34.469Z,4.33
2019-01-29T16:29:01.307Z,3.75
2019-01-29T16:31:28.150Z,3.73
2019-01-29T16:33:55.015Z,3.50
2019-01-29T16:36:21.894Z,3.27
2019-01-29T16:38:48.798Z,3.82
2019-01-29T16:41:15.677Z,3.36
2019-01-29T16:43:42.522Z,3.82
2019-01-29T16:46:09.362Z,3.12
2019-01-29T16:48:36.226Z,2.92
2019-01-29T16:51:03.067Z,2.89
2019-01-29T16:53:29.940Z,2.84
2019-01-29T16:55:56.782Z,2.65
2019-01-29T16:58:23.758Z,2.58
2019-01-29T17:00:50.722Z,3.32
2019-01-29T17:03:17.594Z,2.60
2019-01-29T17:05:44.430Z,2.54
2019-01-29T17:08:12.016Z,2.45
2019-01-29T17:10:38.318Z,2.58
2019-01-29T17:13:05.246Z,2.60
2019-01-29T17:15:32.119Z,2.52
2019-01-29T17:17:59.046Z,2.58
2019-01-29T17:20:29.910Z,2.28
2019-01-29T17:22:56.865Z,2.48
2019-01-29T17:25:23.706Z,2.37
2019-01-29T17:27:50.746Z,2.44
2019-01-29T17:30:21.898Z,2.92
2019-01-29T17:32:48.835Z,2.57
2019-01-29T17:35:15.764Z,3.00
2019-01-29T17:37:42.625Z,3.10
2019-01-29T17:40:10.287Z,2.68
2019-01-29T17:42:37.318Z,2.52
2019-01-29T17:45:05.410Z,2.42
2019-01-29T17:47:32.271Z,2.47
2019-01-29T17:49:59.115Z,2.27
2019-01-29T17:52:26.063Z,2.21
2019-01-29T17:54:52.907Z,2.74
2019-01-29T17:57:19.750Z,2.38
2019-01-29T17:59:46.609Z,2.64
2019-01-29T18:02:13.461Z,2.03
2019-01-29T18:04:40.318Z,1.94
2019-01-29T18:07:07.266Z,1.98
2019-01-29T18:09:34.150Z,1.86
2019-01-29T18:12:00.995Z,1.85
2019-01-29T18:14:27.907Z,2.40
2019-01-29T18:16:54.751Z,2.67
2019-01-29T18:19:21.606Z,2.12
2019-01-29T18:21:56.585Z,2.65
2019-01-29T18:24:15.306Z,2.06
2019-01-29T18:26:42.146Z,2.49
2019-01-29T18:29:09.002Z,2.12
2019-01-29T18:31:35.841Z,2.13
2019-01-29T18:34:02.699Z,2.38
2019-01-29T18:36:29.586Z,1.83
2019-01-29T18:38:56.454Z,2.30
2019-01-29T18:41:23.303Z,2.44
2019-01-29T18:43:50.198Z,1.89
2019-01-29T18:46:17.043Z,2.13
2019-01-29T18:48:43.894Z,1.61
2019-01-29T18:51:10.761Z,2.00
2019-01-29T18:53:37.616Z,1.65
2019-01-29T18:56:04.470Z,1.45
2019-01-29T18:58:31.325Z,1.99
2019-01-29T19:00:58.172Z,1.53
2019-01-29T19:03:25.002Z,2.01
2019-01-29T19:05:51.833Z,1.40
2019-01-29T19:08:18.693Z,1.18
2019-01-29T19:10:45.542Z,1.58
2019-01-29T19:13:12.398Z,1.04
2019-01-29T19:15:39.294Z,0.91
2019-01-29T19:18:06.230Z,0.80
2019-01-29T19:20:33.156Z,0.62
2019-01-29T19:22:59.991Z,0.47
2019-01-29T19:25:26.858Z,0.55
2019-01-29T19:27:53.727Z,0.33
2019-01-29T19:30:22.814Z,0.97
2019-01-29T19:32:49.776Z,0.79
2019-01-29T19:35:16.665Z,0.61
2019-01-29T19:37:43.672Z,0.92
2019-01-29T19:40:10.923Z,0.63
2019-01-29T19:42:37.786Z,1.11
2019-01-29T19:45:08.234Z,0.97
2019-01-29T19:47:35.332Z,0.99
2019-01-29T19:50:02.591Z,0.87
2019-01-29T19:52:29.491Z,1.12
2019-01-29T19:54:56.338Z,0.79
2019-01-29T19:57:24.885Z,1.22
2019-01-29T19:59:50.190Z,1.52
2019-01-29T20:02:17.322Z,0.84
2019-01-29T20:04:44.207Z,1.01
2019-01-29T20:07:11.138Z,1.25
2019-01-29T20:09:38.011Z,0.69
2019-01-29T20:12:04.853Z,1.15
2019-01-29T20:14:31.769Z,0.84
2019-01-29T20:16:58.598Z,1.30
2019-01-29T20:19:26.102Z,0.78
2019-01-29T20:21:52.934Z,1.27
2019-01-29T20:24:19.807Z,0.92
2019-01-29T20:26:46.750Z,1.28
2019-01-29T20:29:13.725Z,1.37
2019-01-29T20:31:40.542Z,0.97
2019-01-29T20:34:07.385Z,1.04
2019-01-29T20:36:34.326Z,1.15
2019-01-29T20:39:01.172Z,1.17
2019-01-29T20:41:28.038Z,0.75
2019-01-29T20:43:54.889Z,1.25
2019-01-29T20:46:21.755Z,1.04
2019-01-29T20:48:48.731Z,1.31
2019-01-29T20:51:15.648Z,0.95
2019-01-29T20:53:42.819Z,1.15
2019-01-29T20:56:11.049Z,0.89
2019-01-29T20:58:37.862Z,1.06
2019-01-29T21:01:04.833Z,1.09
2019-01-29T21:03:31.671Z,0.76
2019-01-29T21:05:58.581Z,1.02
2019-01-29T21:08:25.470Z,1.08
2019-01-29T21:10:52.335Z,0.64
2019-01-29T21:13:19.158Z,0.89
2019-01-29T21:15:46.022Z,1.06
2019-01-29T21:18:12.883Z,0.71
2019-01-29T21:20:39.828Z,0.97
2019-01-29T21:23:06.769Z,1.14
2019-01-29T21:25:33.698Z,0.78
2019-01-29T21:28:00.562Z,1.07
2019-01-29T21:30:34.094Z,1.11
2019-01-29T21:33:00.922Z,0.81
2019-01-29T21:35:27.842Z,1.03
2019-01-29T21:37:54.814Z,1.21
2019-01-29T21:40:21.698Z,0.84
2019-01-29T21:42:48.573Z,1.14
2019-01-29T21:45:15.503Z,0.95
2019-01-29T21:47:42.374Z,0.97
2019-01-29T21:50:13.622Z,1.33
2019-01-29T21:52:40.462Z,1.35
2019-01-29T21:55:07.925Z,0.77
2019-01-29T21:57:34.726Z,0.98
2019-01-29T22:00:01.611Z,1.13
2019-01-29T22:02:28.478Z,0.65
2019-01-29T22:04:55.305Z,1.03
2019-01-29T22:07:22.197Z,0.51
2019-01-29T22:09:49.082Z,1.03
2019-01-29T22:12:15.938Z,0.55
2019-01-29T22:14:42.778Z,1.06
2019-01-29T22:17:09.621Z,1.09
2019-01-29T22:19:36.463Z,0.65
2019-01-29T22:22:03.312Z,0.83
2019-01-29T22:24:30.147Z,0.54
2019-01-29T22:26:56.993Z,0.85
2019-01-29T22:29:23.826Z,0.49
2019-01-29T22:31:50.687Z,0.88
2019-01-29T22:34:17.502Z,0.83
2019-01-29T22:36:44.342Z,0.50
2019-01-29T22:39:11.171Z,0.71
2019-01-29T22:41:38.022Z,0.73
2019-01-29T22:44:04.888Z,0.40
2019-01-29T22:46:31.729Z,0.69
2019-01-29T22:48:58.560Z,0.37
2019-01-29T22:51:25.398Z,0.81
2019-01-29T22:53:52.229Z,0.87
2019-01-29T22:56:19.085Z,0.96
2019-01-29T22:58:45.917Z,0.51
2019-01-29T23:01:33.793Z,0.56
2019-01-29T23:04:09.806Z,0.64
2019-01-29T23:06:46.096Z,0.44
2019-01-29T23:09:12.956Z,0.66
2019-01-29T23:11:39.830Z,0.78
2019-01-29T23:14:06.757Z,0.50
2019-01-29T23:16:33.630Z,0.66
2019-01-29T23:19:00.460Z,0.56
2019-01-29T23:21:27.319Z,0.41
2019-01-29T23:23:54.162Z,0.64
2019-01-29T23:26:21.038Z,0.40
2019-01-29T23:28:47.866Z,0.62
2019-01-29T23:31:14.762Z,0.34
2019-01-29T23:33:41.587Z,0.48
2019-01-29T23:36:08.434Z,0.40
2019-01-29T23:38:35.294Z,0.07
2019-01-29T23:41:02.125Z,0.14
2019-01-29T23:43:28.973Z,-0.20
2019-01-29T23:45:55.806Z,0.11
2019-01-29T23:48:22.649Z,-0.06
2019-01-29T23:50:49.485Z,0.11
2019-01-29T23:53:16.330Z,-0.24
2019-01-29T23:55:43.173Z,-0.02
2019-01-29T23:58:10.026Z,0.28
